createdAt,value
2018-07-28T00:01:47.721Z,98170.82
2018-07-28T00:04:16.808Z,98161.17
2018-07-28T00:06:45.852Z,98160.70
2018-07-28T00:09:14.920Z,98163.02
2018-07-28T00:11:43.961Z,98156.63
2018-07-28T00:14:13.032Z,98154.11
2018-07-28T00:16:42.137Z,98154.03
2018-07-28T00:19:11.207Z,98149.02
2018-07-28T00:21:40.254Z,98147.61
2018-07-28T00:24:09.320Z,98147.55
2018-07-28T00:26:38.391Z,98147.88
2018-07-28T00:29:07.486Z,98143.03
2018-07-28T00:31:36.889Z,98138.25
2018-07-28T00:34:05.985Z,98134.42
2018-07-28T00:36:35.164Z,98143.35
2018-07-28T00:39:06.937Z,98140.45
2018-07-28T00:41:36.423Z,98141.11
2018-07-28T00:44:05.621Z,98142.00
2018-07-28T00:46:34.739Z,98133.83
2018-07-28T00:49:03.941Z,98132.81
2018-07-28T00:51:33.376Z,98133.53
2018-07-28T00:54:02.511Z,98124.72
2018-07-28T00:56:31.731Z,98130.12
2018-07-28T00:59:00.837Z,98125.53
2018-07-28T01:01:30.015Z,98122.71
2018-07-28T01:03:59.080Z,98116.86
2018-07-28T01:06:28.240Z,98116.45
2018-07-28T01:08:57.530Z,98121.36
2018-07-28T01:11:26.973Z,98114.39
2018-07-28T01:13:56.021Z,98119.48
2018-07-28T01:16:25.105Z,98117.33
2018-07-28T01:18:54.201Z,98110.53
2018-07-28T01:21:23.399Z,98109.53
2018-07-28T01:23:52.457Z,98111.28
2018-07-28T01:26:21.549Z,98108.42
2018-07-28T01:28:54.777Z,98102.92
2018-07-28T01:31:23.908Z,98098.84
2018-07-28T01:33:53.022Z,98103.73
2018-07-28T01:36:22.107Z,98101.64
2018-07-28T01:38:51.124Z,98098.90
2018-07-28T01:41:20.453Z,98102.66
2018-07-28T01:43:49.599Z,98096.14
2018-07-28T01:46:18.686Z,98098.17
2018-07-28T01:48:47.692Z,98108.05
2018-07-28T01:51:16.811Z,98105.28
2018-07-28T01:53:45.875Z,98103.45
2018-07-28T01:56:14.934Z,98099.42
2018-07-28T01:58:44.125Z,98095.94
2018-07-28T02:01:13.229Z,98100.92
2018-07-28T02:03:42.302Z,98106.27
2018-07-28T02:08:46.645Z,98184.18
2018-07-28T02:11:15.769Z,98151.34
2018-07-28T02:13:44.884Z,98136.03
2018-07-28T02:16:13.960Z,98143.25
2018-07-28T02:18:43.076Z,98122.89
2018-07-28T02:21:12.132Z,98132.17
2018-07-28T02:23:41.266Z,98119.86
2018-07-28T02:26:10.328Z,98122.21
2018-07-28T02:28:39.699Z,98116.84
2018-07-28T02:31:08.756Z,98110.39
2018-07-28T02:33:37.840Z,98099.00
2018-07-28T02:36:07.585Z,98097.86
2018-07-28T02:38:36.668Z,98104.66
2018-07-28T02:41:05.777Z,98096.51
2018-07-28T02:43:34.864Z,98113.19
2018-07-28T02:46:03.998Z,98124.70
2018-07-28T02:48:33.110Z,98110.93
2018-07-28T02:51:02.217Z,98116.61
2018-07-28T02:53:31.342Z,98108.77
2018-07-28T02:56:00.436Z,98106.70
2018-07-28T02:58:29.566Z,98107.90
2018-07-28T03:00:58.683Z,98113.08
2018-07-28T03:03:27.747Z,98105.38
2018-07-28T03:05:56.841Z,98094.34
2018-07-28T03:08:27.845Z,98101.16
2018-07-28T03:10:56.921Z,98105.59
2018-07-28T03:13:26.517Z,98106.31
2018-07-28T03:15:55.631Z,98103.42
2018-07-28T03:18:24.690Z,98099.98
2018-07-28T03:20:53.778Z,98100.20
2018-07-28T03:23:22.842Z,98099.95
2018-07-28T03:25:51.920Z,98100.47
2018-07-28T03:28:20.953Z,98094.83
2018-07-28T03:30:50.013Z,98095.24
2018-07-28T03:33:19.082Z,98094.27
2018-07-28T03:35:48.154Z,98089.19
2018-07-28T03:38:17.235Z,98082.19
2018-07-28T03:40:46.344Z,98070.58
2018-07-28T03:43:15.405Z,98065.61
2018-07-28T03:45:44.537Z,98052.77
2018-07-28T03:48:13.633Z,98061.83
2018-07-28T03:50:42.991Z,98061.79
2018-07-28T03:53:12.072Z,98068.52
2018-07-28T03:55:41.186Z,98075.66
2018-07-28T03:58:10.266Z,98065.39
2018-07-28T04:00:39.346Z,98063.88
2018-07-28T04:03:08.477Z,98062.09
2018-07-28T04:05:37.579Z,98056.30
2018-07-28T04:08:06.647Z,98056.70
2018-07-28T04:10:35.775Z,98060.26
2018-07-28T04:13:04.935Z,98053.43
2018-07-28T04:15:34.001Z,98050.30
2018-07-28T04:18:03.096Z,98054.38
2018-07-28T04:20:32.127Z,98058.98
2018-07-28T04:23:01.194Z,98092.53
2018-07-28T04:25:30.249Z,98085.54
2018-07-28T04:27:59.366Z,98091.70
2018-07-28T04:30:28.411Z,98085.92
2018-07-28T04:32:58.402Z,98062.05
2018-07-28T04:35:27.434Z,98076.53
2018-07-28T04:37:56.569Z,98061.94
2018-07-28T04:40:25.682Z,98044.01
2018-07-28T04:42:54.809Z,98048.59
2018-07-28T04:45:24.232Z,98049.14
2018-07-28T04:47:53.326Z,98059.42
2018-07-28T04:50:22.377Z,98048.06
2018-07-28T04:52:51.614Z,98032.55
2018-07-28T04:55:20.689Z,98035.03
2018-07-28T04:57:49.769Z,98048.20
2018-07-28T05:00:18.908Z,98032.02
2018-07-28T05:02:47.992Z,98030.23
2018-07-28T05:05:17.096Z,98026.96
2018-07-28T05:07:46.242Z,98018.51
2018-07-28T05:10:15.272Z,98022.02
2018-07-28T05:12:44.345Z,98047.69
2018-07-28T05:15:13.411Z,98037.40
2018-07-28T05:17:42.490Z,98020.38
2018-07-28T05:20:11.573Z,98012.42
2018-07-28T05:22:40.631Z,98019.62
2018-07-28T05:25:09.785Z,98030.86
2018-07-28T05:27:38.831Z,98041.88
2018-07-28T05:30:09.376Z,98065.13
2018-07-28T05:32:38.458Z,98082.81
2018-07-28T05:35:08.834Z,98087.02
2018-07-28T05:37:37.892Z,98112.47
2018-07-28T05:40:07.011Z,98095.06
2018-07-28T05:42:36.143Z,98138.97
2018-07-28T05:45:06.000Z,98211.02
2018-07-28T05:47:35.315Z,98200.38
2018-07-28T05:50:05.096Z,98156.14
2018-07-28T05:52:34.186Z,98198.62
2018-07-28T05:55:03.303Z,98199.59
2018-07-28T05:57:32.841Z,98193.03
2018-07-28T06:00:01.892Z,98152.88
2018-07-28T06:02:31.081Z,98196.63
2018-07-28T06:05:00.107Z,98203.19
2018-07-28T06:07:29.266Z,98198.33
2018-07-28T06:09:58.369Z,98188.74
2018-07-28T06:12:27.466Z,98188.74
2018-07-28T06:14:56.572Z,98191.03
2018-07-28T06:17:25.675Z,98198.52
2018-07-28T06:19:54.760Z,98194.79
2018-07-28T06:22:23.963Z,98189.08
2018-07-28T06:24:53.039Z,98184.72
2018-07-28T06:27:22.148Z,98189.91
2018-07-28T06:29:51.202Z,98185.56
2018-07-28T06:32:20.263Z,98189.27
2018-07-28T06:34:49.367Z,98177.52
2018-07-28T06:37:18.465Z,98178.36
2018-07-28T06:39:47.574Z,98170.49
2018-07-28T06:42:16.718Z,98162.72
2018-07-28T06:44:45.790Z,98172.00
2018-07-28T06:47:14.944Z,98171.23
2018-07-28T06:49:43.997Z,98168.40
2018-07-28T06:52:13.129Z,98163.56
2018-07-28T06:54:42.161Z,98153.44
2018-07-28T06:57:11.321Z,98149.44
2018-07-28T06:59:40.412Z,98152.31
2018-07-28T07:02:09.520Z,98143.80
2018-07-28T07:04:38.609Z,98147.70
2018-07-28T07:07:07.764Z,98159.70
2018-07-28T07:09:36.872Z,98154.91
2018-07-28T07:12:06.159Z,98163.63
2018-07-28T07:14:35.299Z,98155.73
2018-07-28T07:17:04.394Z,98136.00
2018-07-28T07:19:33.465Z,98137.20
2018-07-28T07:22:02.650Z,98140.31
2018-07-28T07:24:31.885Z,98131.02
2018-07-28T07:27:01.079Z,98122.71
2018-07-28T07:29:30.289Z,98128.13
2018-07-28T07:31:59.673Z,98124.42
2018-07-28T07:34:28.894Z,98130.62
2018-07-28T07:36:58.401Z,98122.14
2018-07-28T07:39:27.556Z,98123.50
2018-07-28T07:41:56.789Z,98141.13
2018-07-28T07:44:26.007Z,98148.64
2018-07-28T07:46:55.053Z,98150.95
2018-07-28T07:49:24.245Z,98146.08
2018-07-28T07:51:53.392Z,98133.78
2018-07-28T07:54:22.482Z,98134.41
2018-07-28T07:56:51.559Z,98158.16
2018-07-28T07:59:20.652Z,98148.86
2018-07-28T08:01:49.753Z,98156.41
2018-07-28T08:04:18.861Z,98166.34
2018-07-28T08:06:48.458Z,98162.27
2018-07-28T08:09:17.521Z,98172.37
2018-07-28T08:11:46.635Z,98170.84
2018-07-28T08:14:15.727Z,98184.95
2018-07-28T08:16:44.876Z,98184.75
2018-07-28T08:19:13.954Z,98186.70
2018-07-28T08:21:43.517Z,98191.36
2018-07-28T08:24:13.056Z,98189.64
2018-07-28T08:26:42.275Z,98191.97
2018-07-28T08:29:11.570Z,98188.89
2018-07-28T08:31:40.660Z,98186.60
2018-07-28T08:34:10.270Z,98184.67
2018-07-28T08:36:39.376Z,98181.20
2018-07-28T08:39:12.456Z,98192.03
2018-07-28T08:41:42.385Z,98197.84
2018-07-28T08:44:11.603Z,98200.55
2018-07-28T08:46:41.236Z,98193.95
2018-07-28T08:49:10.383Z,98194.09
2018-07-28T08:51:39.445Z,98200.08
2018-07-28T08:54:08.581Z,98190.58
2018-07-28T08:56:37.718Z,98197.92
2018-07-28T08:59:06.962Z,98194.16
2018-07-28T09:01:36.149Z,98213.91
2018-07-28T09:04:05.239Z,98197.98
2018-07-28T09:06:35.023Z,98192.08
2018-07-28T09:09:06.229Z,97985.70
2018-07-28T09:11:35.353Z,98202.81
2018-07-28T09:14:04.569Z,98201.31
2018-07-28T09:16:33.740Z,98200.91
2018-07-28T09:19:02.751Z,98210.07
2018-07-28T09:21:31.826Z,98211.97
2018-07-28T09:24:01.075Z,98211.63
2018-07-28T09:26:30.295Z,98212.70
2018-07-28T09:28:59.595Z,98213.86
2018-07-28T09:31:28.621Z,98219.63
2018-07-28T09:33:58.154Z,98210.15
2018-07-28T09:36:27.374Z,98231.95
2018-07-28T09:38:56.498Z,98240.53
2018-07-28T09:41:25.623Z,98244.77
2018-07-28T09:43:54.818Z,98254.13
2018-07-28T09:46:24.501Z,98256.88
2018-07-28T09:48:53.512Z,98255.77
2018-07-28T09:51:22.546Z,98250.88
2018-07-28T09:53:51.651Z,98254.45
2018-07-28T09:56:20.785Z,98248.09
2018-07-28T09:58:49.882Z,98244.41
2018-07-28T10:01:22.387Z,98244.05
2018-07-28T10:03:52.132Z,98239.72
2018-07-28T10:06:21.390Z,98236.95
2018-07-28T10:08:50.534Z,98234.49
2018-07-28T10:11:19.682Z,98231.44
2018-07-28T10:13:48.802Z,98225.10
2018-07-28T10:16:18.331Z,98240.19
2018-07-28T10:18:47.453Z,98256.31
2018-07-28T10:21:16.603Z,98264.33
2018-07-28T10:23:46.001Z,98260.33
2018-07-28T10:26:15.218Z,98259.80
2018-07-28T10:28:44.408Z,98260.70
2018-07-28T10:31:13.475Z,98265.63
2018-07-28T10:33:42.685Z,98268.00
2018-07-28T10:36:11.902Z,98268.42
2018-07-28T10:38:41.088Z,98262.77
2018-07-28T10:41:10.286Z,98259.67
2018-07-28T10:43:39.363Z,98262.52
2018-07-28T10:46:08.607Z,98269.56
2018-07-28T10:48:37.890Z,98283.06
2018-07-28T10:51:07.745Z,98280.59
2018-07-28T10:53:36.887Z,98288.55
2018-07-28T10:56:06.039Z,98282.56
2018-07-28T10:58:35.198Z,98285.56
2018-07-28T11:01:05.282Z,98291.27
2018-07-28T11:03:34.514Z,98284.55
2018-07-28T11:06:03.915Z,98270.65
2018-07-28T11:08:32.997Z,98268.91
2018-07-28T11:11:02.335Z,98280.09
2018-07-28T11:13:31.547Z,98275.62
2018-07-28T11:16:00.642Z,98275.92
2018-07-28T11:18:29.829Z,98289.44
2018-07-28T11:20:58.977Z,98289.08
2018-07-28T11:23:39.748Z,98279.53
2018-07-28T11:26:08.874Z,98282.81
2018-07-28T11:28:37.993Z,98285.40
2018-07-28T11:31:17.085Z,98274.38
2018-07-28T11:33:57.503Z,98277.03
2018-07-28T11:36:37.797Z,98269.17
2018-07-28T11:39:18.879Z,98274.38
2018-07-28T11:41:59.568Z,98269.42
2018-07-28T11:44:39.786Z,98265.32
2018-07-28T11:47:08.917Z,98257.11
2018-07-28T11:49:38.137Z,98259.31
2018-07-28T11:52:07.275Z,97744.03
2018-07-28T11:54:36.409Z,98268.97
2018-07-28T11:57:05.510Z,98251.26
2018-07-28T11:59:34.590Z,98247.20
2018-07-28T12:02:03.807Z,98259.80
2018-07-28T12:04:32.934Z,98249.05
2018-07-28T12:07:02.119Z,98256.30
2018-07-28T12:09:31.221Z,98252.59
2018-07-28T12:12:00.391Z,98255.83
2018-07-28T12:14:29.517Z,98268.63
2018-07-28T12:16:58.678Z,98274.74
2018-07-28T12:19:27.813Z,98264.11
2018-07-28T12:21:57.184Z,98265.75
2018-07-28T12:24:26.378Z,98260.08
2018-07-28T12:26:55.466Z,98263.82
2018-07-28T12:29:24.595Z,98254.48
2018-07-28T12:31:53.707Z,98258.44
2018-07-28T12:34:22.766Z,98253.57
2018-07-28T12:36:51.903Z,98262.38
2018-07-28T12:39:21.051Z,98264.97
2018-07-28T12:41:50.156Z,98269.17
2018-07-28T12:44:19.202Z,98264.98
2018-07-28T12:46:48.332Z,98265.94
2018-07-28T12:49:17.465Z,98272.63
2018-07-28T12:51:46.541Z,98283.12
2018-07-28T12:54:15.644Z,98282.53
2018-07-28T12:56:45.098Z,98281.98
2018-07-28T12:59:14.179Z,98285.30
2018-07-28T13:01:43.387Z,98297.42
2018-07-28T13:04:12.654Z,98278.93
2018-07-28T13:06:41.835Z,98284.10
2018-07-28T13:09:12.216Z,98276.70
2018-07-28T13:11:41.767Z,98282.19
2018-07-28T13:14:11.423Z,98288.95
2018-07-28T13:16:40.706Z,98288.79
2018-07-28T13:19:10.241Z,98282.59
2018-07-28T13:21:39.453Z,98286.06
2018-07-28T13:24:08.650Z,98285.40
2018-07-28T13:26:37.808Z,98302.40
2018-07-28T13:29:07.763Z,98291.18
2018-07-28T13:31:36.942Z,98310.47
2018-07-28T13:34:06.046Z,98302.22
2018-07-28T13:36:35.182Z,98304.99
2018-07-28T13:39:05.663Z,98319.26
2018-07-28T13:41:34.846Z,98306.78
2018-07-28T13:44:05.315Z,98309.12
2018-07-28T13:46:34.357Z,98309.72
2018-07-28T13:49:03.504Z,98308.57
2018-07-28T13:51:32.611Z,98316.80
2018-07-28T13:54:01.701Z,98310.16
2018-07-28T13:56:30.766Z,98306.39
2018-07-28T13:58:59.892Z,98307.95
2018-07-28T14:01:29.578Z,98306.06
2018-07-28T14:03:58.720Z,98301.13
2018-07-28T14:06:28.347Z,98291.75
2018-07-28T14:08:57.587Z,98295.17
2018-07-28T14:11:26.748Z,98290.04
2018-07-28T14:13:55.951Z,98305.34
2018-07-28T14:16:25.200Z,98309.94
2018-07-28T14:18:54.394Z,98309.53
2018-07-28T14:21:23.583Z,98302.58
2018-07-28T14:23:52.606Z,98302.04
2018-07-28T14:26:21.765Z,98303.52
2018-07-28T14:28:51.006Z,98306.69
2018-07-28T14:31:20.214Z,98302.88
2018-07-28T14:33:49.732Z,98334.76
2018-07-28T14:36:18.833Z,98325.17
2018-07-28T14:38:47.925Z,98325.55
2018-07-28T14:41:18.964Z,98320.46
2018-07-28T14:43:48.129Z,98327.06
2018-07-28T14:46:17.350Z,98341.51
2018-07-28T14:48:46.473Z,98341.78
2018-07-28T14:51:15.670Z,98329.06
2018-07-28T14:53:44.766Z,98336.73
2018-07-28T14:56:14.466Z,98337.43
2018-07-28T14:58:43.676Z,98341.91
2018-07-28T15:01:12.765Z,98344.31
2018-07-28T15:03:41.898Z,98343.91
2018-07-28T15:06:11.174Z,98343.34
2018-07-28T15:08:40.365Z,98345.64
2018-07-28T15:11:09.468Z,98345.09
2018-07-28T15:13:38.777Z,98349.94
2018-07-28T15:16:08.483Z,98341.13
2018-07-28T15:18:37.575Z,98355.12
2018-07-28T15:21:06.812Z,98361.59
2018-07-28T15:23:35.890Z,98360.11
2018-07-28T15:26:05.026Z,98355.83
2018-07-28T15:28:34.156Z,98340.31
2018-07-28T15:31:03.239Z,98352.77
2018-07-28T15:33:32.405Z,98353.52
2018-07-28T15:36:01.450Z,98356.82
2018-07-28T15:38:30.580Z,98349.22
2018-07-28T15:40:59.679Z,98344.30
2018-07-28T15:43:28.770Z,98352.48
2018-07-28T15:45:58.228Z,98358.66
2018-07-28T15:48:27.327Z,98359.95
2018-07-28T15:50:56.454Z,98363.71
2018-07-28T15:53:25.651Z,98357.20
2018-07-28T15:55:54.779Z,98359.87
2018-07-28T15:58:23.811Z,98349.17
2018-07-28T16:00:52.940Z,98348.59
2018-07-28T16:03:22.036Z,98357.90
2018-07-28T16:05:51.094Z,98373.15
2018-07-28T16:08:20.181Z,98374.68
2018-07-28T16:10:49.458Z,98368.42
2018-07-28T16:13:18.542Z,98356.78
2018-07-28T16:15:47.721Z,98353.15
2018-07-28T16:18:16.801Z,98362.72
2018-07-28T16:20:46.031Z,98356.97
2018-07-28T16:23:15.089Z,98361.33
2018-07-28T16:25:44.169Z,98365.77
2018-07-28T16:28:13.302Z,98362.21
2018-07-28T16:30:42.426Z,98365.42
2018-07-28T16:33:11.571Z,98358.69
2018-07-28T16:35:40.639Z,98358.64
2018-07-28T16:38:09.719Z,98361.23
2018-07-28T16:40:38.819Z,98362.28
2018-07-28T16:43:07.941Z,98364.39
2018-07-28T16:45:37.070Z,98366.34
2018-07-28T16:48:06.181Z,98376.84
2018-07-28T16:50:35.599Z,98392.09
2018-07-28T16:53:04.731Z,98388.14
2018-07-28T16:55:37.221Z,98394.41
2018-07-28T16:58:06.325Z,98401.41
2018-07-28T17:00:35.473Z,98408.78
2018-07-28T17:03:04.595Z,98405.83
2018-07-28T17:05:33.907Z,98416.92
2018-07-28T17:08:03.161Z,98428.39
2018-07-28T17:10:32.253Z,98423.61
2018-07-28T17:13:01.358Z,98430.43
2018-07-28T17:15:30.453Z,98430.41
2018-07-28T17:17:59.611Z,98426.31
2018-07-28T17:20:28.679Z,98418.41
2018-07-28T17:22:57.827Z,98434.71
2018-07-28T17:25:26.910Z,98434.36
2018-07-28T17:27:56.015Z,98444.48
2018-07-28T17:30:25.101Z,98445.41
2018-07-28T17:32:54.290Z,98448.30
2018-07-28T17:35:23.665Z,98443.95
2018-07-28T17:37:52.847Z,98449.00
2018-07-28T17:40:21.907Z,98452.88
2018-07-28T17:42:51.061Z,98455.56
2018-07-28T17:45:20.099Z,98464.94
2018-07-28T17:47:49.225Z,98460.02
2018-07-28T17:50:18.305Z,98462.02
2018-07-28T17:52:47.433Z,98475.19
2018-07-28T17:55:16.549Z,98464.13
2018-07-28T17:57:45.652Z,98479.93
2018-07-28T18:00:14.801Z,98475.88
2018-07-28T18:02:43.945Z,98477.65
2018-07-28T18:05:13.331Z,98473.44
2018-07-28T18:07:42.569Z,98483.75
2018-07-28T18:10:11.564Z,98471.16
2018-07-28T18:12:40.725Z,98478.97
2018-07-28T18:15:09.819Z,98482.45
2018-07-28T18:17:38.939Z,98489.48
2018-07-28T18:20:08.033Z,98498.28
2018-07-28T18:22:37.127Z,98502.19
2018-07-28T18:25:06.224Z,98506.83
2018-07-28T18:27:35.326Z,98502.81
2018-07-28T18:30:04.734Z,98508.45
2018-07-28T18:32:33.919Z,98503.39
2018-07-28T18:35:03.042Z,98519.51
2018-07-28T18:37:32.143Z,98515.27
2018-07-28T18:40:01.303Z,98517.61
2018-07-28T18:42:30.622Z,98523.27
2018-07-28T18:44:59.814Z,98527.95
2018-07-28T18:47:28.933Z,98530.08
2018-07-28T18:49:58.983Z,98534.58
2018-07-28T18:52:28.049Z,98534.58
2018-07-28T18:54:57.316Z,98533.60
2018-07-28T18:57:26.382Z,98543.50
2018-07-28T18:59:55.562Z,98546.05
2018-07-28T19:02:24.727Z,98552.66
2018-07-28T19:04:53.850Z,98548.14
2018-07-28T19:07:23.047Z,98564.08
2018-07-28T19:09:52.978Z,98566.59
2018-07-28T19:12:27.798Z,98564.45
2018-07-28T19:14:56.893Z,98567.94
2018-07-28T19:17:31.476Z,98580.75
2018-07-28T19:20:00.737Z,98580.92
2018-07-28T19:22:35.616Z,98584.22
2018-07-28T19:25:04.754Z,98592.55
2018-07-28T19:27:34.253Z,98596.02
2018-07-28T19:30:03.424Z,98599.86
2018-07-28T19:32:32.680Z,98609.19
2018-07-28T19:35:01.832Z,98611.90
2018-07-28T19:37:30.970Z,98611.90
2018-07-28T19:40:00.196Z,98621.95
2018-07-28T19:42:34.721Z,98622.66
2018-07-28T19:45:03.808Z,98619.33
2018-07-28T19:47:32.899Z,98622.83
2018-07-28T19:50:01.947Z,98632.33
2018-07-28T19:52:31.061Z,98634.79
2018-07-28T19:55:00.159Z,98631.72
2018-07-28T19:57:29.302Z,98635.83
2018-07-28T19:59:59.160Z,98641.27
2018-07-28T20:02:28.412Z,98642.80
2018-07-28T20:04:57.556Z,98646.08
2018-07-28T20:07:26.710Z,98643.75
2018-07-28T20:09:55.810Z,98643.20
2018-07-28T20:12:24.905Z,98645.87
2018-07-28T20:14:55.936Z,98649.94
2018-07-28T20:17:25.094Z,98653.22
2018-07-28T20:19:54.178Z,98653.34
2018-07-28T20:22:23.225Z,98655.17
2018-07-28T20:24:52.377Z,98659.07
2018-07-28T20:27:21.452Z,98664.50
2018-07-28T20:29:50.530Z,98664.88
2018-07-28T20:32:19.760Z,98664.47
2018-07-28T20:34:48.884Z,98668.67
2018-07-28T20:37:17.986Z,98670.41
2018-07-28T20:39:47.153Z,98675.78
2018-07-28T20:42:16.225Z,98678.70
2018-07-28T20:44:45.582Z,98676.16
2018-07-28T20:47:15.039Z,98675.98
2018-07-28T20:49:44.190Z,98682.20
2018-07-28T20:52:14.107Z,98680.89
2018-07-28T20:54:43.203Z,98676.91
2018-07-28T20:57:12.478Z,98680.75
2018-07-28T20:59:41.540Z,98684.95
2018-07-28T21:02:10.593Z,98681.79
2018-07-28T21:04:39.739Z,98674.20
2018-07-28T21:07:08.802Z,98676.10
2018-07-28T21:09:37.952Z,98667.19
2018-07-28T21:12:07.056Z,98673.66
2018-07-28T21:14:36.194Z,98679.84
2018-07-28T21:17:05.469Z,98677.83
2018-07-28T21:19:34.553Z,98678.37
2018-07-28T21:22:03.622Z,98682.81
2018-07-28T21:24:32.716Z,98677.71
2018-07-28T21:27:01.805Z,98671.44
2018-07-28T21:29:30.918Z,98676.68
2018-07-28T21:32:00.051Z,98682.73
2018-07-28T21:34:29.174Z,98684.93
2018-07-28T21:36:58.314Z,98688.77
2018-07-28T21:39:27.883Z,98685.39
2018-07-28T21:41:56.939Z,98684.31
2018-07-28T21:44:26.029Z,98693.83
2018-07-28T21:46:55.085Z,98693.13
2018-07-28T21:49:24.218Z,98691.39
2018-07-28T21:51:53.261Z,98692.41
2018-07-28T21:54:22.815Z,98701.36
2018-07-28T21:56:51.886Z,98705.34
2018-07-28T21:59:20.930Z,98708.62
2018-07-28T22:01:50.359Z,98710.23
2018-07-28T22:04:25.462Z,98713.08
2018-07-28T22:06:54.601Z,98710.36
2018-07-28T22:09:23.782Z,98710.92
2018-07-28T22:11:52.943Z,98723.38
2018-07-28T22:14:22.145Z,98724.03
2018-07-28T22:16:51.216Z,98720.52
2018-07-28T22:19:20.339Z,98720.91
2018-07-28T22:21:49.465Z,98723.28
2018-07-28T22:24:18.678Z,98724.00
2018-07-28T22:26:47.762Z,98725.86
2018-07-28T22:29:16.835Z,98728.63
2018-07-28T22:31:45.913Z,98725.33
2018-07-28T22:34:15.027Z,98724.06
2018-07-28T22:36:44.058Z,98731.33
2018-07-28T22:39:13.204Z,98725.92
2018-07-28T22:41:42.285Z,98732.02
2018-07-28T22:44:11.406Z,98737.92
2018-07-28T22:46:40.491Z,98733.47
2018-07-28T22:49:09.602Z,98739.14
2018-07-28T22:51:38.683Z,98733.89
2018-07-28T22:54:07.834Z,98736.17
2018-07-28T22:56:36.953Z,98741.30
2018-07-28T22:59:06.234Z,98737.18
2018-07-28T23:01:35.307Z,98735.69
2018-07-28T23:04:04.429Z,98734.14
2018-07-28T23:06:33.603Z,98736.77
2018-07-28T23:09:02.795Z,98729.36
2018-07-28T23:11:31.994Z,98733.84
2018-07-28T23:14:01.095Z,98732.43
2018-07-28T23:16:30.244Z,98733.33
2018-07-28T23:18:59.380Z,98738.44
2018-07-28T23:21:28.472Z,98730.55
2018-07-28T23:23:57.702Z,98730.97
2018-07-28T23:26:26.777Z,98729.86
2018-07-28T23:28:55.959Z,98733.97
2018-07-28T23:31:25.073Z,98730.55
2018-07-28T23:33:54.226Z,98729.58
2018-07-28T23:36:23.349Z,98726.67
2018-07-28T23:38:52.551Z,98731.12
2018-07-28T23:41:21.711Z,98738.97
2018-07-28T23:43:50.746Z,98743.02
2018-07-28T23:46:19.873Z,98747.62
2018-07-28T23:48:48.950Z,98752.38
2018-07-28T23:51:18.030Z,98746.62
2018-07-28T23:53:47.089Z,98749.70
2018-07-28T23:56:16.226Z,98749.83
2018-07-28T23:58:45.312Z,98753.95
